Aeroporto :
LOGIN :

Iscrizione | Disclaimer

   EN    FR    IT 

 










Sommario :    VFR   VFR Marginale   IFR   IFR Intensivo   IFR Molto Intensivo
Visibilità : 
Base nubi : 
>= 8 km
>= 3000ft
5 / 8 km
1000 / 3000 ft
1500m / 5 km
500 / 1000 ft
800 / 1500m
200 / 500 ft
< 800m
< 200 ft
Simboli :   Temporali  Nebbia  Neve Forte  Precipitazioni Forti  Vento > 20 kt
SIGMETs :   Varie  Temporali  Ghiacco  Turbolenza  Onda orograficha  Ceneri Vulcaniche






- Altitudine del aeroporto : 1475 ft


LSZC - Buochs Stans

ULTIMO METAR :
  • 191620Z AUTO 22005KT 9999 -RA FEW050 BKN065 17/16 Q1019

METARs OBSOLETI :
  • 191550Z AUTO 26007KT 9999 -RA SCT042 SCT047 BKN065 17/15 Q1018 REDZ
  • 191520Z AUTO 26007KT 9999 BKN045 17/15 Q1018
  • 191450Z AUTO 26006KT 9999 SCT043 BKN048 17/15 Q1018
  • 191420Z AUTO 24004KT 190V290 9999 BKN035 17/15 Q1018
  • 191350Z 25009KT 8000 RA FEW012 BKN035 16/15 Q1018

TAF TAF LSZC
Valido dal 19 a 15 ore il 20 a 00 ore UTC


191425Z 1915/1924 25009KT 8000 RA FEW012 BKN030
BECMG 1915/1918 NSW
PROB30
TEMPO 1918/1924 SHRA



MetMap, La meteo Aeronautica in un colpo d'occhio ! - Copyright ORBIFLY Dicembre 2007 - Disclaimer

ORBIFLY MET'MAP TEAM :

Programmazione e sviluppo : Alexandra Zaïnal
Concezione : Baudouin d'Aumeries
Supporto tecnico e logistico : Manuel Goepfert
Aiuto : Marc-Olivier Méhu
Aiuto per la traduzione : Arnaldo La Scala




FONTI E CREDITI :

   NOAA